﻿<?xml version="1.0" encoding="UTF-8" standalone="no" ?>
<gpx xmlns="http://www.topografix.com/GPX/1/1" creator="CompeGPS" version="1.1" xmlns:xsi="http://www.w3.org/2001/XMLSchema-instance" xsi:schemaLocation="http://www.topografix.com/GPX/1/1 http://www.topografix.com/GPX/1/1/gpx.xsd http://www.garmin.com/xmlschemas/GpxExtensions/v3 http://www.garmin.com/xmlschemas/GpxExtensionsv3.xsd http://www.garmin.com/xmlschemas/TrackPointExtension/v1 http://www.garmin.com/xmlschemas/TrackPointExtensionv1.xsd" xmlns:gpxtpx="http://www.garmin.com/xmlschemas/TrackPointExtension/v1">
  <metadata>
    <link href="http://www.compegps.com">
      <text>CompeGPS TEAM, SL</text>
    </link>
    <time>2015-12-31T12:43:55Z</time>
    <bounds maxlat="44.696599" maxlon="6.233567" minlat="44.686842" minlon="6.207374"/>
  </metadata>
  <trk>
    <name>Rando_182</name>
    <trkseg>
      <trkpt lat="44.686938" lon="6.233567">
        <ele>1566.7</ele>
        <time>2015-06-26T11:19:31Z</time>
      </trkpt>
      <trkpt lat="44.686948" lon="6.233340">
        <ele>1564.5</ele>
        <time>2015-06-26T11:19:56Z</time>
      </trkpt>
      <trkpt lat="44.687032" lon="6.233273">
        <ele>1567.6</ele>
        <time>2015-06-26T11:20:38Z</time>
      </trkpt>
      <trkpt lat="44.687208" lon="6.233048">
        <ele>1570.6</ele>
        <time>2015-06-26T11:21:08Z</time>
      </trkpt>
      <trkpt lat="44.687508" lon="6.232840">
        <ele>1580.1</ele>
        <time>2015-06-26T11:21:45Z</time>
      </trkpt>
      <trkpt lat="44.687655" lon="6.232712">
        <ele>1591.8</ele>
        <time>2015-06-26T11:22:07Z</time>
      </trkpt>
      <trkpt lat="44.687827" lon="6.232722">
        <ele>1600.3</ele>
        <time>2015-06-26T11:22:28Z</time>
      </trkpt>
      <trkpt lat="44.687907" lon="6.232777">
        <ele>1604.5</ele>
        <time>2015-06-26T11:22:39Z</time>
      </trkpt>
      <trkpt lat="44.687998" lon="6.232810">
        <ele>1606.9</ele>
        <time>2015-06-26T11:22:50Z</time>
      </trkpt>
      <trkpt lat="44.688147" lon="6.232893">
        <ele>1611.5</ele>
        <time>2015-06-26T11:23:10Z</time>
      </trkpt>
      <trkpt lat="44.688282" lon="6.232788">
        <ele>1610.8</ele>
        <time>2015-06-26T11:23:27Z</time>
      </trkpt>
      <trkpt lat="44.688093" lon="6.232552">
        <ele>1618.1</ele>
        <time>2015-06-26T11:23:53Z</time>
      </trkpt>
      <trkpt lat="44.687953" lon="6.232427">
        <ele>1623.0</ele>
        <time>2015-06-26T11:24:12Z</time>
      </trkpt>
      <trkpt lat="44.687885" lon="6.232218">
        <ele>1623.9</ele>
        <time>2015-06-26T11:24:28Z</time>
      </trkpt>
      <trkpt lat="44.687790" lon="6.232022">
        <ele>1626.8</ele>
        <time>2015-06-26T11:24:46Z</time>
      </trkpt>
      <trkpt lat="44.687858" lon="6.231933">
        <ele>1630.4</ele>
        <time>2015-06-26T11:24:57Z</time>
      </trkpt>
      <trkpt lat="44.688003" lon="6.232222">
        <ele>1637.3</ele>
        <time>2015-06-26T11:25:30Z</time>
      </trkpt>
      <trkpt lat="44.688093" lon="6.232280">
        <ele>1638.3</ele>
        <time>2015-06-26T11:26:07Z</time>
      </trkpt>
      <trkpt lat="44.688400" lon="6.232203">
        <ele>1640.3</ele>
        <time>2015-06-26T11:26:41Z</time>
      </trkpt>
      <trkpt lat="44.688563" lon="6.232135">
        <ele>1642.4</ele>
        <time>2015-06-26T11:27:01Z</time>
      </trkpt>
      <trkpt lat="44.688482" lon="6.232073">
        <ele>1646.1</ele>
        <time>2015-06-26T11:27:37Z</time>
      </trkpt>
      <trkpt lat="44.688292" lon="6.231878">
        <ele>1649.0</ele>
        <time>2015-06-26T11:28:12Z</time>
      </trkpt>
      <trkpt lat="44.688188" lon="6.231693">
        <ele>1651.3</ele>
        <time>2015-06-26T11:28:28Z</time>
      </trkpt>
      <trkpt lat="44.688173" lon="6.231568">
        <ele>1651.1</ele>
        <time>2015-06-26T11:29:06Z</time>
      </trkpt>
      <trkpt lat="44.688083" lon="6.231122">
        <ele>1651.4</ele>
        <time>2015-06-26T11:29:47Z</time>
      </trkpt>
      <trkpt lat="44.688078" lon="6.230983">
        <ele>1652.0</ele>
        <time>2015-06-26T11:30:23Z</time>
      </trkpt>
      <trkpt lat="44.688107" lon="6.230397">
        <ele>1651.0</ele>
        <time>2015-06-26T11:30:58Z</time>
      </trkpt>
      <trkpt lat="44.688110" lon="6.230275">
        <ele>1651.8</ele>
        <time>2015-06-26T11:31:20Z</time>
      </trkpt>
      <trkpt lat="44.688163" lon="6.230162">
        <ele>1652.9</ele>
        <time>2015-06-26T11:31:29Z</time>
      </trkpt>
      <trkpt lat="44.688542" lon="6.229952">
        <ele>1653.6</ele>
        <time>2015-06-26T11:32:24Z</time>
      </trkpt>
      <trkpt lat="44.688615" lon="6.229875">
        <ele>1653.1</ele>
        <time>2015-06-26T11:32:32Z</time>
      </trkpt>
      <trkpt lat="44.688753" lon="6.229768">
        <ele>1652.3</ele>
        <time>2015-06-26T11:32:47Z</time>
      </trkpt>
      <trkpt lat="44.688955" lon="6.229548">
        <ele>1653.3</ele>
        <time>2015-06-26T11:33:11Z</time>
      </trkpt>
      <trkpt lat="44.689153" lon="6.229313">
        <ele>1654.0</ele>
        <time>2015-06-26T11:33:34Z</time>
      </trkpt>
      <trkpt lat="44.689280" lon="6.229152">
        <ele>1655.6</ele>
        <time>2015-06-26T11:33:51Z</time>
      </trkpt>
      <trkpt lat="44.689433" lon="6.229052">
        <ele>1660.5</ele>
        <time>2015-06-26T11:34:21Z</time>
      </trkpt>
      <trkpt lat="44.689487" lon="6.228953">
        <ele>1662.5</ele>
        <time>2015-06-26T11:34:29Z</time>
      </trkpt>
      <trkpt lat="44.689577" lon="6.228915">
        <ele>1664.5</ele>
        <time>2015-06-26T11:35:22Z</time>
      </trkpt>
      <trkpt lat="44.689847" lon="6.228673">
        <ele>1666.0</ele>
        <time>2015-06-26T11:35:48Z</time>
      </trkpt>
      <trkpt lat="44.690002" lon="6.228558">
        <ele>1666.5</ele>
        <time>2015-06-26T11:36:04Z</time>
      </trkpt>
      <trkpt lat="44.690088" lon="6.228525">
        <ele>1666.0</ele>
        <time>2015-06-26T11:36:31Z</time>
      </trkpt>
      <trkpt lat="44.690232" lon="6.228408">
        <ele>1667.4</ele>
        <time>2015-06-26T11:36:45Z</time>
      </trkpt>
      <trkpt lat="44.690285" lon="6.228315">
        <ele>1668.8</ele>
        <time>2015-06-26T11:36:52Z</time>
      </trkpt>
      <trkpt lat="44.690362" lon="6.228100">
        <ele>1669.5</ele>
        <time>2015-06-26T11:37:06Z</time>
      </trkpt>
      <trkpt lat="44.690498" lon="6.227800">
        <ele>1668.6</ele>
        <time>2015-06-26T11:37:27Z</time>
      </trkpt>
      <trkpt lat="44.690572" lon="6.227725">
        <ele>1669.1</ele>
        <time>2015-06-26T11:37:37Z</time>
      </trkpt>
      <trkpt lat="44.690678" lon="6.227540">
        <ele>1670.0</ele>
        <time>2015-06-26T11:38:27Z</time>
      </trkpt>
      <trkpt lat="44.690860" lon="6.227533">
        <ele>1669.0</ele>
        <time>2015-06-26T11:38:43Z</time>
      </trkpt>
      <trkpt lat="44.690995" lon="6.227423">
        <ele>1667.0</ele>
        <time>2015-06-26T11:38:56Z</time>
      </trkpt>
      <trkpt lat="44.691143" lon="6.227543">
        <ele>1670.8</ele>
        <time>2015-06-26T11:39:37Z</time>
      </trkpt>
      <trkpt lat="44.691230" lon="6.227503">
        <ele>1676.5</ele>
        <time>2015-06-26T11:40:03Z</time>
      </trkpt>
      <trkpt lat="44.691283" lon="6.227287">
        <ele>1681.3</ele>
        <time>2015-06-26T11:40:23Z</time>
      </trkpt>
      <trkpt lat="44.691355" lon="6.227212">
        <ele>1684.0</ele>
        <time>2015-06-26T11:40:40Z</time>
      </trkpt>
      <trkpt lat="44.691397" lon="6.227435">
        <ele>1687.5</ele>
        <time>2015-06-26T11:41:00Z</time>
      </trkpt>
      <trkpt lat="44.691490" lon="6.227397">
        <ele>1690.5</ele>
        <time>2015-06-26T11:42:32Z</time>
      </trkpt>
      <trkpt lat="44.691630" lon="6.227285">
        <ele>1695.3</ele>
        <time>2015-06-26T11:42:54Z</time>
      </trkpt>
      <trkpt lat="44.691715" lon="6.227258">
        <ele>1697.4</ele>
        <time>2015-06-26T11:43:08Z</time>
      </trkpt>
      <trkpt lat="44.691907" lon="6.227008">
        <ele>1704.1</ele>
        <time>2015-06-26T11:43:41Z</time>
      </trkpt>
      <trkpt lat="44.692225" lon="6.226873">
        <ele>1711.5</ele>
        <time>2015-06-26T11:44:31Z</time>
      </trkpt>
      <trkpt lat="44.692482" lon="6.226850">
        <ele>1718.5</ele>
        <time>2015-06-26T11:45:13Z</time>
      </trkpt>
      <trkpt lat="44.692647" lon="6.226783">
        <ele>1722.6</ele>
        <time>2015-06-26T11:45:38Z</time>
      </trkpt>
      <trkpt lat="44.692900" lon="6.226740">
        <ele>1726.0</ele>
        <time>2015-06-26T11:46:15Z</time>
      </trkpt>
      <trkpt lat="44.693070" lon="6.226683">
        <ele>1732.5</ele>
        <time>2015-06-26T11:46:40Z</time>
      </trkpt>
      <trkpt lat="44.693203" lon="6.226538">
        <ele>1743.0</ele>
        <time>2015-06-26T11:47:00Z</time>
      </trkpt>
      <trkpt lat="44.693365" lon="6.226500">
        <ele>1749.5</ele>
        <time>2015-06-26T11:47:22Z</time>
      </trkpt>
      <trkpt lat="44.693438" lon="6.226452">
        <ele>1751.5</ele>
        <time>2015-06-26T11:47:33Z</time>
      </trkpt>
      <trkpt lat="44.693612" lon="6.226363">
        <ele>1757.3</ele>
        <time>2015-06-26T11:48:07Z</time>
      </trkpt>
      <trkpt lat="44.693828" lon="6.226197">
        <ele>1765.5</ele>
        <time>2015-06-26T11:48:46Z</time>
      </trkpt>
      <trkpt lat="44.694010" lon="6.225925">
        <ele>1770.3</ele>
        <time>2015-06-26T11:49:14Z</time>
      </trkpt>
      <trkpt lat="44.694222" lon="6.225745">
        <ele>1774.0</ele>
        <time>2015-06-26T11:49:42Z</time>
      </trkpt>
      <trkpt lat="44.694410" lon="6.225483">
        <ele>1779.5</ele>
        <time>2015-06-26T11:50:15Z</time>
      </trkpt>
      <trkpt lat="44.694497" lon="6.225285">
        <ele>1784.3</ele>
        <time>2015-06-26T11:50:39Z</time>
      </trkpt>
      <trkpt lat="44.694725" lon="6.224912">
        <ele>1789.0</ele>
        <time>2015-06-26T11:51:22Z</time>
      </trkpt>
      <trkpt lat="44.694752" lon="6.224670">
        <ele>1790.8</ele>
        <time>2015-06-26T11:51:41Z</time>
      </trkpt>
      <trkpt lat="44.694795" lon="6.224450">
        <ele>1792.0</ele>
        <time>2015-06-26T11:51:59Z</time>
      </trkpt>
      <trkpt lat="44.694878" lon="6.224243">
        <ele>1792.1</ele>
        <time>2015-06-26T11:52:18Z</time>
      </trkpt>
      <trkpt lat="44.694915" lon="6.224118">
        <ele>1793.6</ele>
        <time>2015-06-26T11:52:30Z</time>
      </trkpt>
      <trkpt lat="44.694955" lon="6.223770">
        <ele>1802.0</ele>
        <time>2015-06-26T11:53:04Z</time>
      </trkpt>
      <trkpt lat="44.694988" lon="6.223663">
        <ele>1803.5</ele>
        <time>2015-06-26T11:53:13Z</time>
      </trkpt>
      <trkpt lat="44.695110" lon="6.223488">
        <ele>1808.3</ele>
        <time>2015-06-26T11:53:38Z</time>
      </trkpt>
      <trkpt lat="44.695217" lon="6.223298">
        <ele>1814.4</ele>
        <time>2015-06-26T11:54:05Z</time>
      </trkpt>
      <trkpt lat="44.695282" lon="6.222823">
        <ele>1824.8</ele>
        <time>2015-06-26T11:54:52Z</time>
      </trkpt>
      <trkpt lat="44.695305" lon="6.222463">
        <ele>1826.0</ele>
        <time>2015-06-26T11:55:31Z</time>
      </trkpt>
      <trkpt lat="44.695227" lon="6.222248">
        <ele>1827.6</ele>
        <time>2015-06-26T11:56:03Z</time>
      </trkpt>
      <trkpt lat="44.695217" lon="6.222003">
        <ele>1832.5</ele>
        <time>2015-06-26T11:56:32Z</time>
      </trkpt>
      <trkpt lat="44.695325" lon="6.221828">
        <ele>1835.4</ele>
        <time>2015-06-26T11:56:53Z</time>
      </trkpt>
      <trkpt lat="44.695302" lon="6.221700">
        <ele>1835.1</ele>
        <time>2015-06-26T11:57:08Z</time>
      </trkpt>
      <trkpt lat="44.695223" lon="6.221412">
        <ele>1838.3</ele>
        <time>2015-06-26T11:57:58Z</time>
      </trkpt>
      <trkpt lat="44.695248" lon="6.221290">
        <ele>1840.9</ele>
        <time>2015-06-26T11:58:10Z</time>
      </trkpt>
      <trkpt lat="44.695398" lon="6.221400">
        <ele>1842.0</ele>
        <time>2015-06-26T11:58:35Z</time>
      </trkpt>
      <trkpt lat="44.695507" lon="6.221083">
        <ele>1849.0</ele>
        <time>2015-06-26T11:59:09Z</time>
      </trkpt>
      <trkpt lat="44.695505" lon="6.220948">
        <ele>1852.5</ele>
        <time>2015-06-26T11:59:23Z</time>
      </trkpt>
      <trkpt lat="44.695310" lon="6.220738">
        <ele>1859.5</ele>
        <time>2015-06-26T11:59:51Z</time>
      </trkpt>
      <trkpt lat="44.695465" lon="6.220700">
        <ele>1859.8</ele>
        <time>2015-06-26T12:00:15Z</time>
      </trkpt>
      <trkpt lat="44.695560" lon="6.220698">
        <ele>1860.8</ele>
        <time>2015-06-26T12:00:29Z</time>
      </trkpt>
      <trkpt lat="44.695718" lon="6.220773">
        <ele>1863.0</ele>
        <time>2015-06-26T12:00:55Z</time>
      </trkpt>
      <trkpt lat="44.695793" lon="6.220557">
        <ele>1873.0</ele>
        <time>2015-06-26T12:01:42Z</time>
      </trkpt>
      <trkpt lat="44.695950" lon="6.220437">
        <ele>1877.1</ele>
        <time>2015-06-26T12:02:05Z</time>
      </trkpt>
      <trkpt lat="44.695787" lon="6.220355">
        <ele>1879.1</ele>
        <time>2015-06-26T12:02:29Z</time>
      </trkpt>
      <trkpt lat="44.695617" lon="6.220303">
        <ele>1881.3</ele>
        <time>2015-06-26T12:02:49Z</time>
      </trkpt>
      <trkpt lat="44.695738" lon="6.220145">
        <ele>1885.4</ele>
        <time>2015-06-26T12:03:22Z</time>
      </trkpt>
      <trkpt lat="44.695878" lon="6.220007">
        <ele>1888.0</ele>
        <time>2015-06-26T12:03:44Z</time>
      </trkpt>
      <trkpt lat="44.695937" lon="6.219910">
        <ele>1890.4</ele>
        <time>2015-06-26T12:03:54Z</time>
      </trkpt>
      <trkpt lat="44.696078" lon="6.219617">
        <ele>1896.3</ele>
        <time>2015-06-26T12:04:25Z</time>
      </trkpt>
      <trkpt lat="44.696188" lon="6.219438">
        <ele>1898.3</ele>
        <time>2015-06-26T12:04:46Z</time>
      </trkpt>
      <trkpt lat="44.696255" lon="6.219352">
        <ele>1899.5</ele>
        <time>2015-06-26T12:04:58Z</time>
      </trkpt>
      <trkpt lat="44.696478" lon="6.219210">
        <ele>1902.3</ele>
        <time>2015-06-26T12:05:31Z</time>
      </trkpt>
      <trkpt lat="44.696593" lon="6.219097">
        <ele>1905.8</ele>
        <time>2015-06-26T12:05:56Z</time>
      </trkpt>
      <trkpt lat="44.696598" lon="6.218962">
        <ele>1907.0</ele>
        <time>2015-06-26T12:06:08Z</time>
      </trkpt>
      <trkpt lat="44.696535" lon="6.218772">
        <ele>1910.3</ele>
        <time>2015-06-26T12:06:31Z</time>
      </trkpt>
      <trkpt lat="44.696370" lon="6.218837">
        <ele>1911.0</ele>
        <time>2015-06-26T12:06:51Z</time>
      </trkpt>
      <trkpt lat="44.696198" lon="6.218855">
        <ele>1914.4</ele>
        <time>2015-06-26T12:07:13Z</time>
      </trkpt>
      <trkpt lat="44.695862" lon="6.218902">
        <ele>1921.3</ele>
        <time>2015-06-26T12:07:53Z</time>
      </trkpt>
      <trkpt lat="44.695702" lon="6.218970">
        <ele>1926.5</ele>
        <time>2015-06-26T12:08:15Z</time>
      </trkpt>
      <trkpt lat="44.695368" lon="6.219028">
        <ele>1931.1</ele>
        <time>2015-06-26T12:10:17Z</time>
      </trkpt>
      <trkpt lat="44.695197" lon="6.218997">
        <ele>1935.0</ele>
        <time>2015-06-26T12:10:42Z</time>
      </trkpt>
      <trkpt lat="44.695167" lon="6.218868">
        <ele>1938.5</ele>
        <time>2015-06-26T12:11:08Z</time>
      </trkpt>
      <trkpt lat="44.695047" lon="6.218712">
        <ele>1942.0</ele>
        <time>2015-06-26T12:11:30Z</time>
      </trkpt>
      <trkpt lat="44.695067" lon="6.218557">
        <ele>1945.0</ele>
        <time>2015-06-26T12:12:02Z</time>
      </trkpt>
      <trkpt lat="44.695158" lon="6.218570">
        <ele>1945.5</ele>
        <time>2015-06-26T12:12:12Z</time>
      </trkpt>
      <trkpt lat="44.695440" lon="6.218407">
        <ele>1953.5</ele>
        <time>2015-06-26T12:13:37Z</time>
      </trkpt>
      <trkpt lat="44.695433" lon="6.218173">
        <ele>1955.3</ele>
        <time>2015-06-26T12:13:52Z</time>
      </trkpt>
      <trkpt lat="44.695357" lon="6.217953">
        <ele>1959.8</ele>
        <time>2015-06-26T12:14:14Z</time>
      </trkpt>
      <trkpt lat="44.695350" lon="6.217818">
        <ele>1960.4</ele>
        <time>2015-06-26T12:14:24Z</time>
      </trkpt>
      <trkpt lat="44.695225" lon="6.217677">
        <ele>1963.0</ele>
        <time>2015-06-26T12:14:42Z</time>
      </trkpt>
      <trkpt lat="44.695115" lon="6.217483">
        <ele>1964.5</ele>
        <time>2015-06-26T12:23:47Z</time>
      </trkpt>
      <trkpt lat="44.694828" lon="6.217237">
        <ele>1971.4</ele>
        <time>2015-06-26T12:24:25Z</time>
      </trkpt>
      <trkpt lat="44.694950" lon="6.217083">
        <ele>1978.1</ele>
        <time>2015-06-26T12:24:46Z</time>
      </trkpt>
      <trkpt lat="44.694882" lon="6.217005">
        <ele>1980.0</ele>
        <time>2015-06-26T12:25:06Z</time>
      </trkpt>
      <trkpt lat="44.694728" lon="6.216937">
        <ele>1983.0</ele>
        <time>2015-06-26T12:25:23Z</time>
      </trkpt>
      <trkpt lat="44.694453" lon="6.216635">
        <ele>1991.9</ele>
        <time>2015-06-26T12:26:06Z</time>
      </trkpt>
      <trkpt lat="44.694358" lon="6.216620">
        <ele>1993.8</ele>
        <time>2015-06-26T12:26:15Z</time>
      </trkpt>
      <trkpt lat="44.694235" lon="6.216773">
        <ele>1996.9</ele>
        <time>2015-06-26T12:26:35Z</time>
      </trkpt>
      <trkpt lat="44.694063" lon="6.216787">
        <ele>1999.8</ele>
        <time>2015-06-26T12:26:53Z</time>
      </trkpt>
      <trkpt lat="44.694108" lon="6.216555">
        <ele>2005.0</ele>
        <time>2015-06-26T12:27:18Z</time>
      </trkpt>
      <trkpt lat="44.694084" lon="6.216320">
        <ele>2011.3</ele>
        <time>2015-06-26T12:27:40Z</time>
      </trkpt>
      <trkpt lat="44.694025" lon="6.216237">
        <ele>2011.5</ele>
        <time>2015-06-26T12:27:48Z</time>
      </trkpt>
      <trkpt lat="44.693895" lon="6.216087">
        <ele>2012.8</ele>
        <time>2015-06-26T12:28:07Z</time>
      </trkpt>
      <trkpt lat="44.693852" lon="6.215965">
        <ele>2015.5</ele>
        <time>2015-06-26T12:28:20Z</time>
      </trkpt>
      <trkpt lat="44.693830" lon="6.215735">
        <ele>2017.5</ele>
        <time>2015-06-26T12:28:48Z</time>
      </trkpt>
      <trkpt lat="44.693722" lon="6.215258">
        <ele>2024.0</ele>
        <time>2015-06-26T12:29:27Z</time>
      </trkpt>
      <trkpt lat="44.693672" lon="6.215020">
        <ele>2027.0</ele>
        <time>2015-06-26T12:29:47Z</time>
      </trkpt>
      <trkpt lat="44.693553" lon="6.214847">
        <ele>2030.4</ele>
        <time>2015-06-26T12:30:05Z</time>
      </trkpt>
      <trkpt lat="44.693578" lon="6.214765">
        <ele>2033.4</ele>
        <time>2015-06-26T12:30:27Z</time>
      </trkpt>
      <trkpt lat="44.693865" lon="6.215008">
        <ele>2036.8</ele>
        <time>2015-06-26T12:30:58Z</time>
      </trkpt>
      <trkpt lat="44.693982" lon="6.215193">
        <ele>2038.5</ele>
        <time>2015-06-26T12:31:16Z</time>
      </trkpt>
      <trkpt lat="44.694007" lon="6.215065">
        <ele>2041.5</ele>
        <time>2015-06-26T12:31:37Z</time>
      </trkpt>
      <trkpt lat="44.693892" lon="6.214765">
        <ele>2045.6</ele>
        <time>2015-06-26T12:32:05Z</time>
      </trkpt>
      <trkpt lat="44.693832" lon="6.214685">
        <ele>2048.3</ele>
        <time>2015-06-26T12:32:15Z</time>
      </trkpt>
      <trkpt lat="44.693748" lon="6.214477">
        <ele>2052.0</ele>
        <time>2015-06-26T12:32:34Z</time>
      </trkpt>
      <trkpt lat="44.693712" lon="6.214360">
        <ele>2054.5</ele>
        <time>2015-06-26T12:32:46Z</time>
      </trkpt>
      <trkpt lat="44.693940" lon="6.214500">
        <ele>2061.3</ele>
        <time>2015-06-26T12:33:14Z</time>
      </trkpt>
      <trkpt lat="44.694028" lon="6.214523">
        <ele>2062.8</ele>
        <time>2015-06-26T12:33:23Z</time>
      </trkpt>
      <trkpt lat="44.694105" lon="6.214335">
        <ele>2063.8</ele>
        <time>2015-06-26T12:33:41Z</time>
      </trkpt>
      <trkpt lat="44.694055" lon="6.214223">
        <ele>2064.8</ele>
        <time>2015-06-26T12:33:51Z</time>
      </trkpt>
      <trkpt lat="44.693932" lon="6.214065">
        <ele>2067.3</ele>
        <time>2015-06-26T12:34:12Z</time>
      </trkpt>
      <trkpt lat="44.693915" lon="6.213947">
        <ele>2067.8</ele>
        <time>2015-06-26T12:34:22Z</time>
      </trkpt>
      <trkpt lat="44.693905" lon="6.213710">
        <ele>2069.5</ele>
        <time>2015-06-26T12:34:40Z</time>
      </trkpt>
      <trkpt lat="44.693780" lon="6.213555">
        <ele>2072.3</ele>
        <time>2015-06-26T12:35:02Z</time>
      </trkpt>
      <trkpt lat="44.693635" lon="6.213455">
        <ele>2076.1</ele>
        <time>2015-06-26T12:35:22Z</time>
      </trkpt>
      <trkpt lat="44.693542" lon="6.213260">
        <ele>2080.8</ele>
        <time>2015-06-26T12:35:45Z</time>
      </trkpt>
      <trkpt lat="44.693507" lon="6.213025">
        <ele>2085.0</ele>
        <time>2015-06-26T12:36:08Z</time>
      </trkpt>
      <trkpt lat="44.693428" lon="6.212827">
        <ele>2088.0</ele>
        <time>2015-06-26T12:36:28Z</time>
      </trkpt>
      <trkpt lat="44.693267" lon="6.212763">
        <ele>2092.1</ele>
        <time>2015-06-26T12:36:50Z</time>
      </trkpt>
      <trkpt lat="44.693328" lon="6.212655">
        <ele>2096.8</ele>
        <time>2015-06-26T12:37:20Z</time>
      </trkpt>
      <trkpt lat="44.693488" lon="6.212658">
        <ele>2098.6</ele>
        <time>2015-06-26T12:37:36Z</time>
      </trkpt>
      <trkpt lat="44.693563" lon="6.212713">
        <ele>2099.8</ele>
        <time>2015-06-26T12:37:44Z</time>
      </trkpt>
      <trkpt lat="44.693770" lon="6.212917">
        <ele>2102.1</ele>
        <time>2015-06-26T12:38:11Z</time>
      </trkpt>
      <trkpt lat="44.693860" lon="6.212960">
        <ele>2103.3</ele>
        <time>2015-06-26T12:38:23Z</time>
      </trkpt>
      <trkpt lat="44.693610" lon="6.212452">
        <ele>2112.3</ele>
        <time>2015-06-26T12:39:16Z</time>
      </trkpt>
      <trkpt lat="44.693563" lon="6.212342">
        <ele>2113.6</ele>
        <time>2015-06-26T12:39:26Z</time>
      </trkpt>
      <trkpt lat="44.693728" lon="6.212442">
        <ele>2117.5</ele>
        <time>2015-06-26T12:39:49Z</time>
      </trkpt>
      <trkpt lat="44.693900" lon="6.212432">
        <ele>2121.1</ele>
        <time>2015-06-26T12:40:11Z</time>
      </trkpt>
      <trkpt lat="44.694028" lon="6.212270">
        <ele>2123.3</ele>
        <time>2015-06-26T12:40:30Z</time>
      </trkpt>
      <trkpt lat="44.694262" lon="6.212203">
        <ele>2128.5</ele>
        <time>2015-06-26T12:42:36Z</time>
      </trkpt>
      <trkpt lat="44.694350" lon="6.212192">
        <ele>2129.8</ele>
        <time>2015-06-26T12:42:46Z</time>
      </trkpt>
      <trkpt lat="44.694508" lon="6.212122">
        <ele>2133.1</ele>
        <time>2015-06-26T12:43:04Z</time>
      </trkpt>
      <trkpt lat="44.694590" lon="6.212053">
        <ele>2134.3</ele>
        <time>2015-06-26T12:43:38Z</time>
      </trkpt>
      <trkpt lat="44.694662" lon="6.211843">
        <ele>2137.6</ele>
        <time>2015-06-26T12:43:58Z</time>
      </trkpt>
      <trkpt lat="44.694572" lon="6.211732">
        <ele>2140.8</ele>
        <time>2015-06-26T12:44:25Z</time>
      </trkpt>
      <trkpt lat="44.694397" lon="6.211778">
        <ele>2143.0</ele>
        <time>2015-06-26T12:44:44Z</time>
      </trkpt>
      <trkpt lat="44.694232" lon="6.211758">
        <ele>2146.1</ele>
        <time>2015-06-26T12:45:04Z</time>
      </trkpt>
      <trkpt lat="44.694077" lon="6.211633">
        <ele>2148.1</ele>
        <time>2015-06-26T12:45:23Z</time>
      </trkpt>
      <trkpt lat="44.693992" lon="6.211600">
        <ele>2149.8</ele>
        <time>2015-06-26T12:45:32Z</time>
      </trkpt>
      <trkpt lat="44.693837" lon="6.211617">
        <ele>2152.5</ele>
        <time>2015-06-26T12:45:52Z</time>
      </trkpt>
      <trkpt lat="44.693702" lon="6.211487">
        <ele>2155.3</ele>
        <time>2015-06-26T12:46:09Z</time>
      </trkpt>
      <trkpt lat="44.693743" lon="6.211378">
        <ele>2159.6</ele>
        <time>2015-06-26T12:46:30Z</time>
      </trkpt>
      <trkpt lat="44.693910" lon="6.211352">
        <ele>2164.5</ele>
        <time>2015-06-26T12:46:51Z</time>
      </trkpt>
      <trkpt lat="44.693953" lon="6.211238">
        <ele>2166.1</ele>
        <time>2015-06-26T12:47:04Z</time>
      </trkpt>
      <trkpt lat="44.694047" lon="6.211052">
        <ele>2171.3</ele>
        <time>2015-06-26T12:47:23Z</time>
      </trkpt>
      <trkpt lat="44.694200" lon="6.210937">
        <ele>2173.8</ele>
        <time>2015-06-26T12:47:41Z</time>
      </trkpt>
      <trkpt lat="44.694267" lon="6.210852">
        <ele>2175.5</ele>
        <time>2015-06-26T12:48:23Z</time>
      </trkpt>
      <trkpt lat="44.694340" lon="6.210652">
        <ele>2177.1</ele>
        <time>2015-06-26T12:48:38Z</time>
      </trkpt>
      <trkpt lat="44.694438" lon="6.210453">
        <ele>2180.6</ele>
        <time>2015-06-26T12:48:56Z</time>
      </trkpt>
      <trkpt lat="44.694570" lon="6.210132">
        <ele>2184.8</ele>
        <time>2015-06-26T12:49:46Z</time>
      </trkpt>
      <trkpt lat="44.694695" lon="6.209967">
        <ele>2189.1</ele>
        <time>2015-06-26T12:50:07Z</time>
      </trkpt>
      <trkpt lat="44.694722" lon="6.209855">
        <ele>2190.8</ele>
        <time>2015-06-26T12:50:17Z</time>
      </trkpt>
      <trkpt lat="44.694730" lon="6.209720">
        <ele>2191.8</ele>
        <time>2015-06-26T12:50:27Z</time>
      </trkpt>
      <trkpt lat="44.694907" lon="6.209483">
        <ele>2196.8</ele>
        <time>2015-06-26T12:50:53Z</time>
      </trkpt>
      <trkpt lat="44.694960" lon="6.209263">
        <ele>2199.6</ele>
        <time>2015-06-26T12:51:12Z</time>
      </trkpt>
      <trkpt lat="44.695000" lon="6.209153">
        <ele>2201.3</ele>
        <time>2015-06-26T12:51:21Z</time>
      </trkpt>
      <trkpt lat="44.695007" lon="6.209022">
        <ele>2203.8</ele>
        <time>2015-06-26T12:51:33Z</time>
      </trkpt>
      <trkpt lat="44.694845" lon="6.209017">
        <ele>2200.6</ele>
        <time>2015-06-26T12:52:15Z</time>
      </trkpt>
      <trkpt lat="44.694713" lon="6.209157">
        <ele>2201.1</ele>
        <time>2015-06-26T12:52:30Z</time>
      </trkpt>
      <trkpt lat="44.694483" lon="6.209308">
        <ele>2203.6</ele>
        <time>2015-06-26T12:52:57Z</time>
      </trkpt>
      <trkpt lat="44.694343" lon="6.209448">
        <ele>2204.8</ele>
        <time>2015-06-26T12:53:13Z</time>
      </trkpt>
      <trkpt lat="44.694195" lon="6.209550">
        <ele>2205.1</ele>
        <time>2015-06-26T12:53:28Z</time>
      </trkpt>
      <trkpt lat="44.694123" lon="6.209623">
        <ele>2205.1</ele>
        <time>2015-06-26T12:53:37Z</time>
      </trkpt>
      <trkpt lat="44.694063" lon="6.209727">
        <ele>2205.3</ele>
        <time>2015-06-26T12:53:46Z</time>
      </trkpt>
      <trkpt lat="44.693760" lon="6.209862">
        <ele>2207.5</ele>
        <time>2015-06-26T12:54:15Z</time>
      </trkpt>
      <trkpt lat="44.693678" lon="6.209887">
        <ele>2208.3</ele>
        <time>2015-06-26T12:54:23Z</time>
      </trkpt>
      <trkpt lat="44.693523" lon="6.209960">
        <ele>2209.8</ele>
        <time>2015-06-26T12:54:38Z</time>
      </trkpt>
      <trkpt lat="44.693277" lon="6.209917">
        <ele>2213.0</ele>
        <time>2015-06-26T12:55:02Z</time>
      </trkpt>
      <trkpt lat="44.693113" lon="6.209857">
        <ele>2215.3</ele>
        <time>2015-06-26T12:55:18Z</time>
      </trkpt>
      <trkpt lat="44.693030" lon="6.209843">
        <ele>2217.1</ele>
        <time>2015-06-26T12:55:26Z</time>
      </trkpt>
      <trkpt lat="44.692788" lon="6.209730">
        <ele>2221.6</ele>
        <time>2015-06-26T12:55:51Z</time>
      </trkpt>
      <trkpt lat="44.692493" lon="6.209498">
        <ele>2228.0</ele>
        <time>2015-06-26T12:56:26Z</time>
      </trkpt>
      <trkpt lat="44.692235" lon="6.209203">
        <ele>2229.8</ele>
        <time>2015-06-26T12:56:58Z</time>
      </trkpt>
      <trkpt lat="44.692098" lon="6.209068">
        <ele>2230.6</ele>
        <time>2015-06-26T12:57:13Z</time>
      </trkpt>
      <trkpt lat="44.691788" lon="6.208880">
        <ele>2230.5</ele>
        <time>2015-06-26T12:57:44Z</time>
      </trkpt>
      <trkpt lat="44.691530" lon="6.208797">
        <ele>2230.3</ele>
        <time>2015-06-26T12:58:07Z</time>
      </trkpt>
      <trkpt lat="44.691380" lon="6.208843">
        <ele>2228.8</ele>
        <time>2015-06-26T12:58:22Z</time>
      </trkpt>
      <trkpt lat="44.691205" lon="6.208805">
        <ele>2229.0</ele>
        <time>2015-06-26T12:58:39Z</time>
      </trkpt>
      <trkpt lat="44.691040" lon="6.208727">
        <ele>2231.1</ele>
        <time>2015-06-26T12:59:00Z</time>
      </trkpt>
      <trkpt lat="44.691060" lon="6.208602">
        <ele>2236.6</ele>
        <time>2015-06-26T12:59:19Z</time>
      </trkpt>
      <trkpt lat="44.691177" lon="6.208437">
        <ele>2245.3</ele>
        <time>2015-06-26T12:59:51Z</time>
      </trkpt>
      <trkpt lat="44.691212" lon="6.208197">
        <ele>2254.5</ele>
        <time>2015-06-26T13:00:25Z</time>
      </trkpt>
      <trkpt lat="44.691348" lon="6.208172">
        <ele>2262.3</ele>
        <time>2015-06-26T13:01:22Z</time>
      </trkpt>
      <trkpt lat="44.691600" lon="6.208277">
        <ele>2266.6</ele>
        <time>2015-06-26T13:02:00Z</time>
      </trkpt>
      <trkpt lat="44.691682" lon="6.208270">
        <ele>2267.6</ele>
        <time>2015-06-26T13:02:18Z</time>
      </trkpt>
      <trkpt lat="44.691827" lon="6.208365">
        <ele>2266.6</ele>
        <time>2015-06-26T13:02:31Z</time>
      </trkpt>
      <trkpt lat="44.692053" lon="6.208530">
        <ele>2266.8</ele>
        <time>2015-06-26T13:02:51Z</time>
      </trkpt>
      <trkpt lat="44.692197" lon="6.208605">
        <ele>2268.8</ele>
        <time>2015-06-26T13:03:08Z</time>
      </trkpt>
      <trkpt lat="44.692525" lon="6.208693">
        <ele>2275.5</ele>
        <time>2015-06-26T13:03:58Z</time>
      </trkpt>
      <trkpt lat="44.692695" lon="6.208718">
        <ele>2280.8</ele>
        <time>2015-06-26T13:04:25Z</time>
      </trkpt>
      <trkpt lat="44.692818" lon="6.208787">
        <ele>2290.1</ele>
        <time>2015-06-26T13:05:08Z</time>
      </trkpt>
      <trkpt lat="44.692910" lon="6.208818">
        <ele>2288.1</ele>
        <time>2015-06-26T13:09:11Z</time>
      </trkpt>
      <trkpt lat="44.692888" lon="6.208813">
        <ele>2287.0</ele>
        <time>2015-06-26T13:10:20Z</time>
      </trkpt>
      <trkpt lat="44.692752" lon="6.208715">
        <ele>2278.1</ele>
        <time>2015-06-26T13:11:08Z</time>
      </trkpt>
      <trkpt lat="44.692663" lon="6.208740">
        <ele>2274.0</ele>
        <time>2015-06-26T13:11:25Z</time>
      </trkpt>
      <trkpt lat="44.692500" lon="6.208707">
        <ele>2269.3</ele>
        <time>2015-06-26T13:12:31Z</time>
      </trkpt>
      <trkpt lat="44.692348" lon="6.208625">
        <ele>2265.8</ele>
        <time>2015-06-26T13:12:58Z</time>
      </trkpt>
      <trkpt lat="44.692043" lon="6.208487">
        <ele>2262.1</ele>
        <time>2015-06-26T13:13:30Z</time>
      </trkpt>
      <trkpt lat="44.691738" lon="6.208287">
        <ele>2261.0</ele>
        <time>2015-06-26T13:13:55Z</time>
      </trkpt>
      <trkpt lat="44.691568" lon="6.208270">
        <ele>2259.1</ele>
        <time>2015-06-26T13:14:10Z</time>
      </trkpt>
      <trkpt lat="44.691322" lon="6.208177">
        <ele>2254.8</ele>
        <time>2015-06-26T13:14:31Z</time>
      </trkpt>
      <trkpt lat="44.691242" lon="6.208105">
        <ele>2252.8</ele>
        <time>2015-06-26T13:14:39Z</time>
      </trkpt>
      <trkpt lat="44.691093" lon="6.208048">
        <ele>2251.1</ele>
        <time>2015-06-26T13:14:52Z</time>
      </trkpt>
      <trkpt lat="44.691030" lon="6.207962">
        <ele>2250.5</ele>
        <time>2015-06-26T13:15:14Z</time>
      </trkpt>
      <trkpt lat="44.690863" lon="6.207905">
        <ele>2249.1</ele>
        <time>2015-06-26T13:15:28Z</time>
      </trkpt>
      <trkpt lat="44.690727" lon="6.207738">
        <ele>2244.5</ele>
        <time>2015-06-26T13:15:48Z</time>
      </trkpt>
      <trkpt lat="44.690573" lon="6.207498">
        <ele>2242.1</ele>
        <time>2015-06-26T13:16:06Z</time>
      </trkpt>
      <trkpt lat="44.690430" lon="6.207373">
        <ele>2243.3</ele>
        <time>2015-06-26T13:16:23Z</time>
      </trkpt>
      <trkpt lat="44.690505" lon="6.207445">
        <ele>2246.6</ele>
        <time>2015-06-26T13:18:42Z</time>
      </trkpt>
      <trkpt lat="44.690678" lon="6.207663">
        <ele>2245.5</ele>
        <time>2015-06-26T13:19:00Z</time>
      </trkpt>
      <trkpt lat="44.690948" lon="6.207938">
        <ele>2253.1</ele>
        <time>2015-06-26T13:19:34Z</time>
      </trkpt>
      <trkpt lat="44.691033" lon="6.207985">
        <ele>2253.6</ele>
        <time>2015-06-26T13:19:45Z</time>
      </trkpt>
      <trkpt lat="44.691097" lon="6.208180">
        <ele>2252.3</ele>
        <time>2015-06-26T13:19:59Z</time>
      </trkpt>
      <trkpt lat="44.691073" lon="6.208292">
        <ele>2245.6</ele>
        <time>2015-06-26T13:20:19Z</time>
      </trkpt>
      <trkpt lat="44.690910" lon="6.208283">
        <ele>2240.8</ele>
        <time>2015-06-26T13:20:34Z</time>
      </trkpt>
      <trkpt lat="44.690937" lon="6.208400">
        <ele>2238.0</ele>
        <time>2015-06-26T13:20:49Z</time>
      </trkpt>
      <trkpt lat="44.691062" lon="6.208550">
        <ele>2234.5</ele>
        <time>2015-06-26T13:21:04Z</time>
      </trkpt>
      <trkpt lat="44.691043" lon="6.208672">
        <ele>2235.0</ele>
        <time>2015-06-26T13:24:50Z</time>
      </trkpt>
      <trkpt lat="44.691232" lon="6.208808">
        <ele>2230.6</ele>
        <time>2015-06-26T13:25:17Z</time>
      </trkpt>
      <trkpt lat="44.691403" lon="6.208822">
        <ele>2230.6</ele>
        <time>2015-06-26T13:25:32Z</time>
      </trkpt>
      <trkpt lat="44.691573" lon="6.208782">
        <ele>2228.6</ele>
        <time>2015-06-26T13:25:47Z</time>
      </trkpt>
      <trkpt lat="44.691657" lon="6.208828">
        <ele>2226.6</ele>
        <time>2015-06-26T13:25:55Z</time>
      </trkpt>
      <trkpt lat="44.691817" lon="6.208885">
        <ele>2226.3</ele>
        <time>2015-06-26T13:26:09Z</time>
      </trkpt>
      <trkpt lat="44.692130" lon="6.209102">
        <ele>2227.1</ele>
        <time>2015-06-26T13:26:58Z</time>
      </trkpt>
      <trkpt lat="44.692317" lon="6.209267">
        <ele>2227.8</ele>
        <time>2015-06-26T13:27:15Z</time>
      </trkpt>
      <trkpt lat="44.692378" lon="6.209353">
        <ele>2227.1</ele>
        <time>2015-06-26T13:27:22Z</time>
      </trkpt>
      <trkpt lat="44.692505" lon="6.209490">
        <ele>2226.1</ele>
        <time>2015-06-26T13:27:34Z</time>
      </trkpt>
      <trkpt lat="44.692800" lon="6.209722">
        <ele>2220.6</ele>
        <time>2015-06-26T13:28:03Z</time>
      </trkpt>
      <trkpt lat="44.693122" lon="6.209848">
        <ele>2216.6</ele>
        <time>2015-06-26T13:28:33Z</time>
      </trkpt>
      <trkpt lat="44.693372" lon="6.209905">
        <ele>2213.0</ele>
        <time>2015-06-26T13:28:55Z</time>
      </trkpt>
      <trkpt lat="44.693538" lon="6.209922">
        <ele>2212.5</ele>
        <time>2015-06-26T13:29:09Z</time>
      </trkpt>
      <trkpt lat="44.693692" lon="6.209843">
        <ele>2213.1</ele>
        <time>2015-06-26T13:31:23Z</time>
      </trkpt>
      <trkpt lat="44.694018" lon="6.209727">
        <ele>2213.8</ele>
        <time>2015-06-26T13:31:57Z</time>
      </trkpt>
      <trkpt lat="44.694155" lon="6.209602">
        <ele>2211.8</ele>
        <time>2015-06-26T13:32:11Z</time>
      </trkpt>
      <trkpt lat="44.694290" lon="6.209452">
        <ele>2209.8</ele>
        <time>2015-06-26T13:32:25Z</time>
      </trkpt>
      <trkpt lat="44.694443" lon="6.209342">
        <ele>2208.8</ele>
        <time>2015-06-26T13:32:39Z</time>
      </trkpt>
      <trkpt lat="44.694662" lon="6.209163">
        <ele>2205.6</ele>
        <time>2015-06-26T13:33:00Z</time>
      </trkpt>
      <trkpt lat="44.694742" lon="6.209122">
        <ele>2203.0</ele>
        <time>2015-06-26T13:33:33Z</time>
      </trkpt>
      <trkpt lat="44.694895" lon="6.209002">
        <ele>2199.3</ele>
        <time>2015-06-26T13:33:48Z</time>
      </trkpt>
      <trkpt lat="44.695053" lon="6.209053">
        <ele>2196.8</ele>
        <time>2015-06-26T13:33:59Z</time>
      </trkpt>
      <trkpt lat="44.695095" lon="6.209157">
        <ele>2194.5</ele>
        <time>2015-06-26T13:34:07Z</time>
      </trkpt>
      <trkpt lat="44.695003" lon="6.209358">
        <ele>2191.0</ele>
        <time>2015-06-26T13:34:22Z</time>
      </trkpt>
      <trkpt lat="44.694983" lon="6.209463">
        <ele>2190.1</ele>
        <time>2015-06-26T13:34:28Z</time>
      </trkpt>
      <trkpt lat="44.694972" lon="6.209598">
        <ele>2189.0</ele>
        <time>2015-06-26T13:34:36Z</time>
      </trkpt>
      <trkpt lat="44.694828" lon="6.209717">
        <ele>2183.0</ele>
        <time>2015-06-26T13:35:35Z</time>
      </trkpt>
      <trkpt lat="44.694785" lon="6.209828">
        <ele>2181.6</ele>
        <time>2015-06-26T13:35:43Z</time>
      </trkpt>
      <trkpt lat="44.694762" lon="6.210038">
        <ele>2180.5</ele>
        <time>2015-06-26T13:35:54Z</time>
      </trkpt>
      <trkpt lat="44.694645" lon="6.210207">
        <ele>2178.8</ele>
        <time>2015-06-26T13:36:27Z</time>
      </trkpt>
      <trkpt lat="44.694557" lon="6.210402">
        <ele>2176.1</ele>
        <time>2015-06-26T13:36:41Z</time>
      </trkpt>
      <trkpt lat="44.694495" lon="6.210512">
        <ele>2174.3</ele>
        <time>2015-06-26T13:36:49Z</time>
      </trkpt>
      <trkpt lat="44.694323" lon="6.210898">
        <ele>2168.8</ele>
        <time>2015-06-26T13:37:19Z</time>
      </trkpt>
      <trkpt lat="44.694210" lon="6.211078">
        <ele>2166.0</ele>
        <time>2015-06-26T13:37:33Z</time>
      </trkpt>
      <trkpt lat="44.694065" lon="6.211188">
        <ele>2162.3</ele>
        <time>2015-06-26T13:37:47Z</time>
      </trkpt>
      <trkpt lat="44.694003" lon="6.211292">
        <ele>2160.5</ele>
        <time>2015-06-26T13:37:56Z</time>
      </trkpt>
      <trkpt lat="44.693953" lon="6.211395">
        <ele>2155.0</ele>
        <time>2015-06-26T13:39:11Z</time>
      </trkpt>
      <trkpt lat="44.693797" lon="6.211422">
        <ele>2151.8</ele>
        <time>2015-06-26T13:39:23Z</time>
      </trkpt>
      <trkpt lat="44.693767" lon="6.211557">
        <ele>2149.1</ele>
        <time>2015-06-26T13:39:42Z</time>
      </trkpt>
      <trkpt lat="44.693917" lon="6.211668">
        <ele>2147.6</ele>
        <time>2015-06-26T13:39:55Z</time>
      </trkpt>
      <trkpt lat="44.694088" lon="6.211657">
        <ele>2145.8</ele>
        <time>2015-06-26T13:40:09Z</time>
      </trkpt>
      <trkpt lat="44.694314" lon="6.211803">
        <ele>2141.3</ele>
        <time>2015-06-26T13:40:28Z</time>
      </trkpt>
      <trkpt lat="44.694488" lon="6.211787">
        <ele>2138.0</ele>
        <time>2015-06-26T13:40:44Z</time>
      </trkpt>
      <trkpt lat="44.694572" lon="6.211753">
        <ele>2136.8</ele>
        <time>2015-06-26T13:40:51Z</time>
      </trkpt>
      <trkpt lat="44.694738" lon="6.211778">
        <ele>2134.8</ele>
        <time>2015-06-26T13:41:06Z</time>
      </trkpt>
      <trkpt lat="44.694718" lon="6.211878">
        <ele>2133.0</ele>
        <time>2015-06-26T13:41:12Z</time>
      </trkpt>
      <trkpt lat="44.694670" lon="6.211993">
        <ele>2131.0</ele>
        <time>2015-06-26T13:41:19Z</time>
      </trkpt>
      <trkpt lat="44.694520" lon="6.212207">
        <ele>2126.6</ele>
        <time>2015-06-26T13:41:36Z</time>
      </trkpt>
      <trkpt lat="44.694357" lon="6.212265">
        <ele>2123.0</ele>
        <time>2015-06-26T13:41:49Z</time>
      </trkpt>
      <trkpt lat="44.694277" lon="6.212268">
        <ele>2121.1</ele>
        <time>2015-06-26T13:41:55Z</time>
      </trkpt>
      <trkpt lat="44.694108" lon="6.212323">
        <ele>2116.8</ele>
        <time>2015-06-26T13:42:09Z</time>
      </trkpt>
      <trkpt lat="44.693965" lon="6.212460">
        <ele>2113.3</ele>
        <time>2015-06-26T13:42:24Z</time>
      </trkpt>
      <trkpt lat="44.693732" lon="6.212480">
        <ele>2107.6</ele>
        <time>2015-06-26T13:42:42Z</time>
      </trkpt>
      <trkpt lat="44.693657" lon="6.212428">
        <ele>2106.3</ele>
        <time>2015-06-26T13:42:47Z</time>
      </trkpt>
      <trkpt lat="44.693632" lon="6.212440">
        <ele>2103.1</ele>
        <time>2015-06-26T13:43:01Z</time>
      </trkpt>
      <trkpt lat="44.693727" lon="6.212617">
        <ele>2100.6</ele>
        <time>2015-06-26T13:43:13Z</time>
      </trkpt>
      <trkpt lat="44.693800" lon="6.212827">
        <ele>2100.0</ele>
        <time>2015-06-26T13:43:24Z</time>
      </trkpt>
      <trkpt lat="44.693768" lon="6.212953">
        <ele>2094.6</ele>
        <time>2015-06-26T13:43:53Z</time>
      </trkpt>
      <trkpt lat="44.693505" lon="6.212688">
        <ele>2086.6</ele>
        <time>2015-06-26T13:44:18Z</time>
      </trkpt>
      <trkpt lat="44.693418" lon="6.212652">
        <ele>2085.8</ele>
        <time>2015-06-26T13:44:26Z</time>
      </trkpt>
      <trkpt lat="44.693262" lon="6.212717">
        <ele>2081.6</ele>
        <time>2015-06-26T13:44:48Z</time>
      </trkpt>
      <trkpt lat="44.693335" lon="6.212787">
        <ele>2079.8</ele>
        <time>2015-06-26T13:45:03Z</time>
      </trkpt>
      <trkpt lat="44.693485" lon="6.212857">
        <ele>2078.5</ele>
        <time>2015-06-26T13:45:16Z</time>
      </trkpt>
      <trkpt lat="44.693587" lon="6.213055">
        <ele>2077.3</ele>
        <time>2015-06-26T13:45:30Z</time>
      </trkpt>
      <trkpt lat="44.693608" lon="6.213293">
        <ele>2074.3</ele>
        <time>2015-06-26T13:45:45Z</time>
      </trkpt>
      <trkpt lat="44.693692" lon="6.213493">
        <ele>2070.3</ele>
        <time>2015-06-26T13:46:01Z</time>
      </trkpt>
      <trkpt lat="44.693847" lon="6.213587">
        <ele>2065.8</ele>
        <time>2015-06-26T13:46:18Z</time>
      </trkpt>
      <trkpt lat="44.693932" lon="6.213603">
        <ele>2064.1</ele>
        <time>2015-06-26T13:46:26Z</time>
      </trkpt>
      <trkpt lat="44.693972" lon="6.213720">
        <ele>2062.1</ele>
        <time>2015-06-26T13:46:32Z</time>
      </trkpt>
      <trkpt lat="44.693967" lon="6.213930">
        <ele>2062.1</ele>
        <time>2015-06-26T13:46:42Z</time>
      </trkpt>
      <trkpt lat="44.693992" lon="6.214157">
        <ele>2059.6</ele>
        <time>2015-06-26T13:46:55Z</time>
      </trkpt>
      <trkpt lat="44.694115" lon="6.214315">
        <ele>2057.5</ele>
        <time>2015-06-26T13:47:14Z</time>
      </trkpt>
      <trkpt lat="44.694098" lon="6.214537">
        <ele>2054.6</ele>
        <time>2015-06-26T13:47:27Z</time>
      </trkpt>
      <trkpt lat="44.694000" lon="6.214577">
        <ele>2052.1</ele>
        <time>2015-06-26T13:47:35Z</time>
      </trkpt>
      <trkpt lat="44.693785" lon="6.214425">
        <ele>2048.1</ele>
        <time>2015-06-26T13:47:54Z</time>
      </trkpt>
      <trkpt lat="44.693805" lon="6.214537">
        <ele>2045.9</ele>
        <time>2015-06-26T13:48:09Z</time>
      </trkpt>
      <trkpt lat="44.693887" lon="6.214730">
        <ele>2045.0</ele>
        <time>2015-06-26T13:48:21Z</time>
      </trkpt>
      <trkpt lat="44.694033" lon="6.215148">
        <ele>2040.0</ele>
        <time>2015-06-26T13:48:50Z</time>
      </trkpt>
      <trkpt lat="44.693953" lon="6.215153">
        <ele>2035.0</ele>
        <time>2015-06-26T13:49:05Z</time>
      </trkpt>
      <trkpt lat="44.693840" lon="6.214980">
        <ele>2032.5</ele>
        <time>2015-06-26T13:49:16Z</time>
      </trkpt>
      <trkpt lat="44.693715" lon="6.214830">
        <ele>2029.8</ele>
        <time>2015-06-26T13:49:28Z</time>
      </trkpt>
      <trkpt lat="44.693545" lon="6.214738">
        <ele>2024.9</ele>
        <time>2015-06-26T13:49:43Z</time>
      </trkpt>
      <trkpt lat="44.693718" lon="6.214990">
        <ele>2018.9</ele>
        <time>2015-06-26T13:50:03Z</time>
      </trkpt>
      <trkpt lat="44.693762" lon="6.215088">
        <ele>2017.4</ele>
        <time>2015-06-26T13:50:09Z</time>
      </trkpt>
      <trkpt lat="44.693780" lon="6.215320">
        <ele>2015.5</ele>
        <time>2015-06-26T13:50:22Z</time>
      </trkpt>
      <trkpt lat="44.693818" lon="6.215563">
        <ele>2013.8</ele>
        <time>2015-06-26T13:50:34Z</time>
      </trkpt>
      <trkpt lat="44.693908" lon="6.216025">
        <ele>2009.9</ele>
        <time>2015-06-26T13:51:01Z</time>
      </trkpt>
      <trkpt lat="44.693945" lon="6.216140">
        <ele>2008.4</ele>
        <time>2015-06-26T13:51:08Z</time>
      </trkpt>
      <trkpt lat="44.694077" lon="6.216280">
        <ele>2005.3</ele>
        <time>2015-06-26T13:51:21Z</time>
      </trkpt>
      <trkpt lat="44.694170" lon="6.216478">
        <ele>2001.8</ele>
        <time>2015-06-26T13:51:35Z</time>
      </trkpt>
      <trkpt lat="44.694138" lon="6.216697">
        <ele>1999.0</ele>
        <time>2015-06-26T13:51:47Z</time>
      </trkpt>
      <trkpt lat="44.694080" lon="6.216793">
        <ele>1997.0</ele>
        <time>2015-06-26T13:51:54Z</time>
      </trkpt>
      <trkpt lat="44.694322" lon="6.216733">
        <ele>1992.3</ele>
        <time>2015-06-26T13:52:54Z</time>
      </trkpt>
      <trkpt lat="44.694455" lon="6.216608">
        <ele>1990.1</ele>
        <time>2015-06-26T13:53:06Z</time>
      </trkpt>
      <trkpt lat="44.694587" lon="6.216723">
        <ele>1990.8</ele>
        <time>2015-06-26T13:53:16Z</time>
      </trkpt>
      <trkpt lat="44.694697" lon="6.216893">
        <ele>1987.6</ele>
        <time>2015-06-26T13:53:30Z</time>
      </trkpt>
      <trkpt lat="44.694825" lon="6.217030">
        <ele>1983.8</ele>
        <time>2015-06-26T13:53:44Z</time>
      </trkpt>
      <trkpt lat="44.694987" lon="6.217125">
        <ele>1981.6</ele>
        <time>2015-06-26T13:53:58Z</time>
      </trkpt>
      <trkpt lat="44.694847" lon="6.217265">
        <ele>1974.4</ele>
        <time>2015-06-26T13:54:17Z</time>
      </trkpt>
      <trkpt lat="44.694982" lon="6.217395">
        <ele>1970.8</ele>
        <time>2015-06-26T13:54:33Z</time>
      </trkpt>
      <trkpt lat="44.695207" lon="6.217548">
        <ele>1966.4</ele>
        <time>2015-06-26T13:54:51Z</time>
      </trkpt>
      <trkpt lat="44.695302" lon="6.217743">
        <ele>1962.9</ele>
        <time>2015-06-26T13:55:04Z</time>
      </trkpt>
      <trkpt lat="44.695420" lon="6.217913">
        <ele>1961.0</ele>
        <time>2015-06-26T13:55:16Z</time>
      </trkpt>
      <trkpt lat="44.695382" lon="6.218017">
        <ele>1960.5</ele>
        <time>2015-06-26T13:55:21Z</time>
      </trkpt>
      <trkpt lat="44.695418" lon="6.218253">
        <ele>1957.1</ele>
        <time>2015-06-26T13:55:36Z</time>
      </trkpt>
      <trkpt lat="44.695407" lon="6.218368">
        <ele>1956.6</ele>
        <time>2015-06-26T13:55:42Z</time>
      </trkpt>
      <trkpt lat="44.695370" lon="6.218498">
        <ele>1956.4</ele>
        <time>2015-06-26T13:56:24Z</time>
      </trkpt>
      <trkpt lat="44.695053" lon="6.218587">
        <ele>1948.0</ele>
        <time>2015-06-26T13:56:51Z</time>
      </trkpt>
      <trkpt lat="44.694967" lon="6.218560">
        <ele>1945.5</ele>
        <time>2015-06-26T13:56:59Z</time>
      </trkpt>
      <trkpt lat="44.695060" lon="6.218770">
        <ele>1944.6</ele>
        <time>2015-06-26T13:57:19Z</time>
      </trkpt>
      <trkpt lat="44.695147" lon="6.218835">
        <ele>1943.5</ele>
        <time>2015-06-26T13:57:26Z</time>
      </trkpt>
      <trkpt lat="44.695220" lon="6.219020">
        <ele>1940.5</ele>
        <time>2015-06-26T13:57:38Z</time>
      </trkpt>
      <trkpt lat="44.695375" lon="6.219038">
        <ele>1936.9</ele>
        <time>2015-06-26T13:57:50Z</time>
      </trkpt>
      <trkpt lat="44.695538" lon="6.218972">
        <ele>1936.5</ele>
        <time>2015-06-26T13:58:02Z</time>
      </trkpt>
      <trkpt lat="44.695700" lon="6.218932">
        <ele>1936.0</ele>
        <time>2015-06-26T13:58:15Z</time>
      </trkpt>
      <trkpt lat="44.695775" lon="6.218875">
        <ele>1934.5</ele>
        <time>2015-06-26T13:58:22Z</time>
      </trkpt>
      <trkpt lat="44.695870" lon="6.218862">
        <ele>1933.1</ele>
        <time>2015-06-26T13:58:30Z</time>
      </trkpt>
      <trkpt lat="44.696018" lon="6.218865">
        <ele>1932.0</ele>
        <time>2015-06-26T13:58:42Z</time>
      </trkpt>
      <trkpt lat="44.696185" lon="6.218833">
        <ele>1928.9</ele>
        <time>2015-06-26T13:58:55Z</time>
      </trkpt>
      <trkpt lat="44.696348" lon="6.218827">
        <ele>1926.3</ele>
        <time>2015-06-26T13:59:07Z</time>
      </trkpt>
      <trkpt lat="44.696437" lon="6.218808">
        <ele>1925.0</ele>
        <time>2015-06-26T13:59:15Z</time>
      </trkpt>
      <trkpt lat="44.696590" lon="6.218827">
        <ele>1922.4</ele>
        <time>2015-06-26T13:59:28Z</time>
      </trkpt>
      <trkpt lat="44.696580" lon="6.218968">
        <ele>1919.1</ele>
        <time>2015-06-26T13:59:34Z</time>
      </trkpt>
      <trkpt lat="44.696522" lon="6.219288">
        <ele>1913.8</ele>
        <time>2015-06-26T13:59:51Z</time>
      </trkpt>
      <trkpt lat="44.696438" lon="6.219308">
        <ele>1910.1</ele>
        <time>2015-06-26T13:59:58Z</time>
      </trkpt>
      <trkpt lat="44.696280" lon="6.219385">
        <ele>1904.9</ele>
        <time>2015-06-26T14:00:11Z</time>
      </trkpt>
      <trkpt lat="44.696142" lon="6.219510">
        <ele>1901.4</ele>
        <time>2015-06-26T14:00:23Z</time>
      </trkpt>
      <trkpt lat="44.696022" lon="6.219683">
        <ele>1898.9</ele>
        <time>2015-06-26T14:00:37Z</time>
      </trkpt>
      <trkpt lat="44.695827" lon="6.220085">
        <ele>1894.0</ele>
        <time>2015-06-26T14:01:04Z</time>
      </trkpt>
      <trkpt lat="44.695763" lon="6.220167">
        <ele>1892.5</ele>
        <time>2015-06-26T14:01:11Z</time>
      </trkpt>
      <trkpt lat="44.695618" lon="6.220247">
        <ele>1888.0</ele>
        <time>2015-06-26T14:01:24Z</time>
      </trkpt>
      <trkpt lat="44.695695" lon="6.220328">
        <ele>1885.4</ele>
        <time>2015-06-26T14:01:40Z</time>
      </trkpt>
      <trkpt lat="44.695842" lon="6.220377">
        <ele>1885.0</ele>
        <time>2015-06-26T14:01:50Z</time>
      </trkpt>
      <trkpt lat="44.695883" lon="6.220545">
        <ele>1881.8</ele>
        <time>2015-06-26T14:02:05Z</time>
      </trkpt>
      <trkpt lat="44.695728" lon="6.220610">
        <ele>1878.0</ele>
        <time>2015-06-26T14:02:16Z</time>
      </trkpt>
      <trkpt lat="44.695688" lon="6.220807">
        <ele>1871.0</ele>
        <time>2015-06-26T14:02:34Z</time>
      </trkpt>
      <trkpt lat="44.695600" lon="6.220735">
        <ele>1868.0</ele>
        <time>2015-06-26T14:02:41Z</time>
      </trkpt>
      <trkpt lat="44.695363" lon="6.220720">
        <ele>1861.9</ele>
        <time>2015-06-26T14:03:01Z</time>
      </trkpt>
      <trkpt lat="44.695443" lon="6.220895">
        <ele>1860.4</ele>
        <time>2015-06-26T14:03:21Z</time>
      </trkpt>
      <trkpt lat="44.695472" lon="6.221100">
        <ele>1857.8</ele>
        <time>2015-06-26T14:03:32Z</time>
      </trkpt>
      <trkpt lat="44.695393" lon="6.221313">
        <ele>1855.0</ele>
        <time>2015-06-26T14:03:44Z</time>
      </trkpt>
      <trkpt lat="44.695287" lon="6.221453">
        <ele>1851.6</ele>
        <time>2015-06-26T14:03:56Z</time>
      </trkpt>
      <trkpt lat="44.695163" lon="6.221462">
        <ele>1846.5</ele>
        <time>2015-06-26T14:04:16Z</time>
      </trkpt>
      <trkpt lat="44.695172" lon="6.221708">
        <ele>1843.8</ele>
        <time>2015-06-26T14:04:33Z</time>
      </trkpt>
      <trkpt lat="44.695308" lon="6.221817">
        <ele>1840.8</ele>
        <time>2015-06-26T14:04:44Z</time>
      </trkpt>
      <trkpt lat="44.695268" lon="6.221952">
        <ele>1838.6</ele>
        <time>2015-06-26T14:04:51Z</time>
      </trkpt>
      <trkpt lat="44.695182" lon="6.222135">
        <ele>1833.8</ele>
        <time>2015-06-26T14:05:08Z</time>
      </trkpt>
      <trkpt lat="44.695205" lon="6.222370">
        <ele>1828.5</ele>
        <time>2015-06-26T14:05:28Z</time>
      </trkpt>
      <trkpt lat="44.695278" lon="6.222438">
        <ele>1826.9</ele>
        <time>2015-06-26T14:05:36Z</time>
      </trkpt>
      <trkpt lat="44.695267" lon="6.222678">
        <ele>1826.1</ele>
        <time>2015-06-26T14:05:53Z</time>
      </trkpt>
      <trkpt lat="44.695237" lon="6.222907">
        <ele>1825.3</ele>
        <time>2015-06-26T14:06:06Z</time>
      </trkpt>
      <trkpt lat="44.695245" lon="6.223028">
        <ele>1824.8</ele>
        <time>2015-06-26T14:06:16Z</time>
      </trkpt>
      <trkpt lat="44.695137" lon="6.223348">
        <ele>1820.5</ele>
        <time>2015-06-26T14:06:37Z</time>
      </trkpt>
      <trkpt lat="44.695047" lon="6.223547">
        <ele>1815.1</ele>
        <time>2015-06-26T14:06:52Z</time>
      </trkpt>
      <trkpt lat="44.694977" lon="6.223617">
        <ele>1812.0</ele>
        <time>2015-06-26T14:07:01Z</time>
      </trkpt>
      <trkpt lat="44.694867" lon="6.223788">
        <ele>1807.3</ele>
        <time>2015-06-26T14:07:15Z</time>
      </trkpt>
      <trkpt lat="44.694828" lon="6.224237">
        <ele>1801.9</ele>
        <time>2015-06-26T14:07:41Z</time>
      </trkpt>
      <trkpt lat="44.694830" lon="6.224357">
        <ele>1799.0</ele>
        <time>2015-06-26T14:07:47Z</time>
      </trkpt>
      <trkpt lat="44.694733" lon="6.224537">
        <ele>1795.0</ele>
        <time>2015-06-26T14:07:59Z</time>
      </trkpt>
      <trkpt lat="44.694720" lon="6.224663">
        <ele>1794.0</ele>
        <time>2015-06-26T14:08:07Z</time>
      </trkpt>
      <trkpt lat="44.694655" lon="6.224975">
        <ele>1792.8</ele>
        <time>2015-06-26T14:08:26Z</time>
      </trkpt>
      <trkpt lat="44.694502" lon="6.225275">
        <ele>1791.8</ele>
        <time>2015-06-26T14:08:48Z</time>
      </trkpt>
      <trkpt lat="44.694362" lon="6.225418">
        <ele>1791.9</ele>
        <time>2015-06-26T14:09:05Z</time>
      </trkpt>
      <trkpt lat="44.694317" lon="6.225520">
        <ele>1794.5</ele>
        <time>2015-06-26T14:09:12Z</time>
      </trkpt>
      <trkpt lat="44.694193" lon="6.225692">
        <ele>1796.1</ele>
        <time>2015-06-26T14:09:28Z</time>
      </trkpt>
      <trkpt lat="44.694000" lon="6.225912">
        <ele>1796.9</ele>
        <time>2015-06-26T14:09:49Z</time>
      </trkpt>
      <trkpt lat="44.693867" lon="6.226032">
        <ele>1799.5</ele>
        <time>2015-06-26T14:10:01Z</time>
      </trkpt>
      <trkpt lat="44.693757" lon="6.226198">
        <ele>1801.5</ele>
        <time>2015-06-26T14:10:15Z</time>
      </trkpt>
      <trkpt lat="44.693398" lon="6.226442">
        <ele>1796.6</ele>
        <time>2015-06-26T14:11:01Z</time>
      </trkpt>
      <trkpt lat="44.693313" lon="6.226463">
        <ele>1794.9</ele>
        <time>2015-06-26T14:11:08Z</time>
      </trkpt>
      <trkpt lat="44.692937" lon="6.226673">
        <ele>1785.5</ele>
        <time>2015-06-26T14:11:45Z</time>
      </trkpt>
      <trkpt lat="44.692775" lon="6.226718">
        <ele>1780.5</ele>
        <time>2015-06-26T14:12:01Z</time>
      </trkpt>
      <trkpt lat="44.692697" lon="6.226768">
        <ele>1778.0</ele>
        <time>2015-06-26T14:12:09Z</time>
      </trkpt>
      <trkpt lat="44.692528" lon="6.226780">
        <ele>1774.0</ele>
        <time>2015-06-26T14:12:25Z</time>
      </trkpt>
      <trkpt lat="44.692363" lon="6.226840">
        <ele>1768.1</ele>
        <time>2015-06-26T14:12:41Z</time>
      </trkpt>
      <trkpt lat="44.692275" lon="6.226833">
        <ele>1764.5</ele>
        <time>2015-06-26T14:12:51Z</time>
      </trkpt>
      <trkpt lat="44.692105" lon="6.226857">
        <ele>1756.5</ele>
        <time>2015-06-26T14:13:12Z</time>
      </trkpt>
      <trkpt lat="44.692030" lon="6.226917">
        <ele>1752.9</ele>
        <time>2015-06-26T14:13:22Z</time>
      </trkpt>
      <trkpt lat="44.691942" lon="6.226953">
        <ele>1749.1</ele>
        <time>2015-06-26T14:13:33Z</time>
      </trkpt>
      <trkpt lat="44.691800" lon="6.227045">
        <ele>1744.9</ele>
        <time>2015-06-26T14:13:47Z</time>
      </trkpt>
      <trkpt lat="44.691685" lon="6.227197">
        <ele>1743.5</ele>
        <time>2015-06-26T14:14:01Z</time>
      </trkpt>
      <trkpt lat="44.691530" lon="6.227318">
        <ele>1734.5</ele>
        <time>2015-06-26T14:14:23Z</time>
      </trkpt>
      <trkpt lat="44.691440" lon="6.227352">
        <ele>1729.8</ele>
        <time>2015-06-26T14:14:35Z</time>
      </trkpt>
      <trkpt lat="44.691285" lon="6.227225">
        <ele>1723.4</ele>
        <time>2015-06-26T14:15:09Z</time>
      </trkpt>
      <trkpt lat="44.691167" lon="6.227358">
        <ele>1721.5</ele>
        <time>2015-06-26T14:15:27Z</time>
      </trkpt>
      <trkpt lat="44.691108" lon="6.227585">
        <ele>1719.3</ele>
        <time>2015-06-26T14:15:42Z</time>
      </trkpt>
      <trkpt lat="44.690973" lon="6.227452">
        <ele>1713.0</ele>
        <time>2015-06-26T14:16:08Z</time>
      </trkpt>
      <trkpt lat="44.690837" lon="6.227530">
        <ele>1711.0</ele>
        <time>2015-06-26T14:16:25Z</time>
      </trkpt>
      <trkpt lat="44.690673" lon="6.227507">
        <ele>1710.6</ele>
        <time>2015-06-26T14:16:38Z</time>
      </trkpt>
      <trkpt lat="44.690583" lon="6.227542">
        <ele>1709.6</ele>
        <time>2015-06-26T14:16:45Z</time>
      </trkpt>
      <trkpt lat="44.690470" lon="6.227702">
        <ele>1708.4</ele>
        <time>2015-06-26T14:16:56Z</time>
      </trkpt>
      <trkpt lat="44.690345" lon="6.228005">
        <ele>1707.5</ele>
        <time>2015-06-26T14:17:14Z</time>
      </trkpt>
      <trkpt lat="44.690253" lon="6.228205">
        <ele>1709.0</ele>
        <time>2015-06-26T14:17:26Z</time>
      </trkpt>
      <trkpt lat="44.690217" lon="6.228310">
        <ele>1710.0</ele>
        <time>2015-06-26T14:17:32Z</time>
      </trkpt>
      <trkpt lat="44.690095" lon="6.228464">
        <ele>1710.0</ele>
        <time>2015-06-26T14:17:44Z</time>
      </trkpt>
      <trkpt lat="44.689870" lon="6.228618">
        <ele>1708.3</ele>
        <time>2015-06-26T14:18:02Z</time>
      </trkpt>
      <trkpt lat="44.689565" lon="6.228852">
        <ele>1706.6</ele>
        <time>2015-06-26T14:18:26Z</time>
      </trkpt>
      <trkpt lat="44.689425" lon="6.228978">
        <ele>1705.9</ele>
        <time>2015-06-26T14:18:38Z</time>
      </trkpt>
      <trkpt lat="44.689300" lon="6.229127">
        <ele>1704.8</ele>
        <time>2015-06-26T14:19:09Z</time>
      </trkpt>
      <trkpt lat="44.689153" lon="6.229238">
        <ele>1704.3</ele>
        <time>2015-06-26T14:19:20Z</time>
      </trkpt>
      <trkpt lat="44.688975" lon="6.229502">
        <ele>1704.4</ele>
        <time>2015-06-26T14:19:38Z</time>
      </trkpt>
      <trkpt lat="44.688847" lon="6.229665">
        <ele>1703.0</ele>
        <time>2015-06-26T14:19:50Z</time>
      </trkpt>
      <trkpt lat="44.688782" lon="6.229732">
        <ele>1701.6</ele>
        <time>2015-06-26T14:19:56Z</time>
      </trkpt>
      <trkpt lat="44.688642" lon="6.229848">
        <ele>1697.8</ele>
        <time>2015-06-26T14:20:08Z</time>
      </trkpt>
      <trkpt lat="44.688318" lon="6.230035">
        <ele>1691.6</ele>
        <time>2015-06-26T14:20:34Z</time>
      </trkpt>
      <trkpt lat="44.688182" lon="6.230155">
        <ele>1684.6</ele>
        <time>2015-06-26T14:20:46Z</time>
      </trkpt>
      <trkpt lat="44.688098" lon="6.230357">
        <ele>1673.0</ele>
        <time>2015-06-26T14:20:58Z</time>
      </trkpt>
      <trkpt lat="44.688108" lon="6.230735">
        <ele>1663.5</ele>
        <time>2015-06-26T14:21:17Z</time>
      </trkpt>
      <trkpt lat="44.688082" lon="6.230953">
        <ele>1659.0</ele>
        <time>2015-06-26T14:21:44Z</time>
      </trkpt>
      <trkpt lat="44.688087" lon="6.231200">
        <ele>1657.5</ele>
        <time>2015-06-26T14:21:57Z</time>
      </trkpt>
      <trkpt lat="44.688172" lon="6.231658">
        <ele>1653.9</ele>
        <time>2015-06-26T14:22:23Z</time>
      </trkpt>
      <trkpt lat="44.688390" lon="6.231983">
        <ele>1651.5</ele>
        <time>2015-06-26T14:22:47Z</time>
      </trkpt>
      <trkpt lat="44.688543" lon="6.232073">
        <ele>1653.5</ele>
        <time>2015-06-26T14:22:59Z</time>
      </trkpt>
      <trkpt lat="44.688547" lon="6.232202">
        <ele>1651.1</ele>
        <time>2015-06-26T14:23:12Z</time>
      </trkpt>
      <trkpt lat="44.688372" lon="6.232222">
        <ele>1645.6</ele>
        <time>2015-06-26T14:23:24Z</time>
      </trkpt>
      <trkpt lat="44.688208" lon="6.232280">
        <ele>1644.0</ele>
        <time>2015-06-26T14:23:36Z</time>
      </trkpt>
      <trkpt lat="44.688047" lon="6.232233">
        <ele>1638.0</ele>
        <time>2015-06-26T14:23:49Z</time>
      </trkpt>
      <trkpt lat="44.687968" lon="6.232178">
        <ele>1636.1</ele>
        <time>2015-06-26T14:23:55Z</time>
      </trkpt>
      <trkpt lat="44.687860" lon="6.231988">
        <ele>1633.8</ele>
        <time>2015-06-26T14:24:08Z</time>
      </trkpt>
      <trkpt lat="44.687805" lon="6.232122">
        <ele>1634.0</ele>
        <time>2015-06-26T14:24:24Z</time>
      </trkpt>
      <trkpt lat="44.687915" lon="6.232425">
        <ele>1631.9</ele>
        <time>2015-06-26T14:24:40Z</time>
      </trkpt>
      <trkpt lat="44.688063" lon="6.232563">
        <ele>1626.9</ele>
        <time>2015-06-26T14:24:54Z</time>
      </trkpt>
      <trkpt lat="44.688138" lon="6.232598">
        <ele>1625.0</ele>
        <time>2015-06-26T14:24:59Z</time>
      </trkpt>
      <trkpt lat="44.688232" lon="6.232783">
        <ele>1620.0</ele>
        <time>2015-06-26T14:25:11Z</time>
      </trkpt>
      <trkpt lat="44.688250" lon="6.232905">
        <ele>1618.5</ele>
        <time>2015-06-26T14:25:18Z</time>
      </trkpt>
      <trkpt lat="44.688085" lon="6.232868">
        <ele>1615.0</ele>
        <time>2015-06-26T14:25:29Z</time>
      </trkpt>
      <trkpt lat="44.687945" lon="6.232753">
        <ele>1612.9</ele>
        <time>2015-06-26T14:25:42Z</time>
      </trkpt>
      <trkpt lat="44.687780" lon="6.232708">
        <ele>1609.0</ele>
        <time>2015-06-26T14:25:55Z</time>
      </trkpt>
      <trkpt lat="44.687703" lon="6.232677">
        <ele>1607.1</ele>
        <time>2015-06-26T14:26:02Z</time>
      </trkpt>
      <trkpt lat="44.687538" lon="6.232738">
        <ele>1605.5</ele>
        <time>2015-06-26T14:26:16Z</time>
      </trkpt>
      <trkpt lat="44.687392" lon="6.232890">
        <ele>1606.8</ele>
        <time>2015-06-26T14:26:32Z</time>
      </trkpt>
      <trkpt lat="44.687175" lon="6.232995">
        <ele>1609.6</ele>
        <time>2015-06-26T14:26:47Z</time>
      </trkpt>
      <trkpt lat="44.687038" lon="6.233132">
        <ele>1608.8</ele>
        <time>2015-06-26T14:26:59Z</time>
      </trkpt>
      <trkpt lat="44.686933" lon="6.233313">
        <ele>1602.6</ele>
        <time>2015-06-26T14:27:12Z</time>
      </trkpt>
      <trkpt lat="44.686867" lon="6.233385">
        <ele>1600.9</ele>
        <time>2015-06-26T14:27:18Z</time>
      </trkpt>
      <trkpt lat="44.686842" lon="6.233520">
        <ele>1598.5</ele>
        <time>2015-06-26T14:27:35Z</time>
      </trkpt>
      <trkpt lat="44.686858" lon="6.233500">
        <ele>1592.0</ele>
        <time>2015-06-26T14:28:28Z</time>
      </trkpt>
    </trkseg>
  </trk>
</gpx>
